createdAt,value
2023-03-04T00:03:40.273Z,6.20
2023-03-04T00:08:42.359Z,6.20
2023-03-04T00:13:44.402Z,6.30
2023-03-04T00:18:46.534Z,6.30
2023-03-04T00:23:48.908Z,6.30
2023-03-04T00:28:50.929Z,6.30
2023-03-04T00:33:53.007Z,6.30
2023-03-04T00:38:55.075Z,6.30
2023-03-04T00:43:57.222Z,6.30
2023-03-04T00:48:59.328Z,6.30
2023-03-04T00:54:01.397Z,6.30
2023-03-04T00:59:03.600Z,6.30
2023-03-04T01:04:06.998Z,6.30
2023-03-04T01:09:09.232Z,6.30
2023-03-04T01:14:11.640Z,6.30
2023-03-04T01:19:13.743Z,6.30
2023-03-04T01:24:15.913Z,6.20
2023-03-04T01:29:18.206Z,6.20
2023-03-04T01:34:20.331Z,6.20
2023-03-04T01:39:22.593Z,6.20
2023-03-04T01:44:26.896Z,6.20
2023-03-04T01:49:29.748Z,6.20
2023-03-04T01:54:31.898Z,6.20
2023-03-04T01:59:34.003Z,6.20
2023-03-04T02:04:36.166Z,6.10
2023-03-04T02:09:38.398Z,6.20
2023-03-04T02:14:40.603Z,6.10
2023-03-04T02:19:49.727Z,6.10
2023-03-04T02:25:06.288Z,6.10
2023-03-04T02:30:11.958Z,6.10
2023-03-04T02:35:18.300Z,6.10
2023-03-04T02:40:28.345Z,6.10
2023-03-04T02:45:44.930Z,6.10
2023-03-04T02:50:52.564Z,6.10
2023-03-04T02:55:54.627Z,6.00
2023-03-04T03:00:58.543Z,6.10
2023-03-04T03:06:02.738Z,6.10
2023-03-04T03:11:05.504Z,6.10
2023-03-04T03:16:09.062Z,6.00
2023-03-04T03:21:11.198Z,5.90
2023-03-04T03:26:13.360Z,6.00
2023-03-04T03:31:15.742Z,6.00
2023-03-04T03:36:21.916Z,5.90
2023-03-04T03:41:24.160Z,5.90
2023-03-04T03:46:27.373Z,5.90
2023-03-04T03:51:29.453Z,5.90
2023-03-04T03:56:31.473Z,5.80
2023-03-04T04:01:33.875Z,5.80
2023-03-04T04:06:35.884Z,5.80
2023-03-04T04:11:37.956Z,5.80
2023-03-04T04:16:40.507Z,5.80
2023-03-04T04:21:42.513Z,5.80
2023-03-04T04:26:44.559Z,5.80
2023-03-04T04:31:46.660Z,5.80
2023-03-04T04:36:49.188Z,5.80
2023-03-04T04:41:51.236Z,5.80
2023-03-04T04:46:53.301Z,5.80
2023-03-04T04:51:55.367Z,5.80
2023-03-04T04:56:57.409Z,5.80
2023-03-04T05:01:59.461Z,5.70
2023-03-04T05:07:01.492Z,5.70
2023-03-04T05:12:03.716Z,5.70
2023-03-04T05:17:05.830Z,5.80
2023-03-04T05:22:08.121Z,5.80
2023-03-04T05:27:10.254Z,5.90
2023-03-04T05:32:12.377Z,5.80
2023-03-04T05:37:14.449Z,5.70
2023-03-04T05:42:16.451Z,5.70
2023-03-04T05:47:18.530Z,5.60
2023-03-04T05:52:20.824Z,5.60
2023-03-04T05:57:22.867Z,5.60
2023-03-04T06:02:24.989Z,5.50
2023-03-04T06:07:27.048Z,5.50
2023-03-04T06:12:29.153Z,5.50
2023-03-04T06:17:31.198Z,5.50
2023-03-04T06:22:34.447Z,5.50
2023-03-04T06:27:36.533Z,5.50
2023-03-04T06:32:38.605Z,5.50
2023-03-04T06:37:40.931Z,5.50
2023-03-04T06:42:43.567Z,5.50
2023-03-04T06:47:45.665Z,5.50
2023-03-04T06:52:49.326Z,5.60
2023-03-04T06:57:51.433Z,5.50
2023-03-04T07:02:55.129Z,5.50
2023-03-04T07:07:57.539Z,5.50
2023-03-04T07:12:59.598Z,5.50
2023-03-04T07:18:01.652Z,5.50
2023-03-04T07:23:03.704Z,5.50
2023-03-04T07:28:05.737Z,5.50
2023-03-04T07:33:07.888Z,5.60
2023-03-04T07:38:10.297Z,5.70
2023-03-04T07:43:13.113Z,5.70
2023-03-04T07:48:15.140Z,5.70
2023-03-04T07:53:17.178Z,5.80
2023-03-04T07:58:20.007Z,5.80
2023-03-04T08:03:22.049Z,5.80
2023-03-04T08:08:24.103Z,5.90
2023-03-04T08:13:26.204Z,5.90
2023-03-04T08:18:28.629Z,6.00
2023-03-04T08:23:30.719Z,6.10
2023-03-04T08:28:32.820Z,6.20
2023-03-04T08:33:34.960Z,6.10
2023-03-04T08:38:37.182Z,6.10
2023-03-04T08:43:39.739Z,6.00
2023-03-04T08:48:41.761Z,6.00
2023-03-04T08:53:44.188Z,5.90
2023-03-04T08:58:46.311Z,5.90
2023-03-04T09:03:48.724Z,6.00
2023-03-04T09:08:51.000Z,6.10
2023-03-04T09:13:53.501Z,6.10
2023-03-04T09:18:55.626Z,6.20
2023-03-04T09:23:57.659Z,6.20
2023-03-04T09:29:01.656Z,6.30
2023-03-04T09:34:03.764Z,6.50
2023-03-04T09:39:06.269Z,6.60
2023-03-04T09:44:36.857Z,6.70
2023-03-04T09:49:42.481Z,6.80
2023-03-04T09:55:33.941Z,6.80
2023-03-04T10:00:44.014Z,6.90
2023-03-04T10:06:11.446Z,7.10
2023-03-04T10:11:15.873Z,7.10
2023-03-04T10:16:22.907Z,7.20
2023-03-04T10:21:39.072Z,7.40
2023-03-04T10:26:43.379Z,7.40
2023-03-04T10:31:46.767Z,7.30
2023-03-04T10:37:07.029Z,7.50
2023-03-04T10:42:15.204Z,7.70
2023-03-04T10:47:17.601Z,7.80
2023-03-04T10:52:39.532Z,7.70
2023-03-04T10:57:44.804Z,7.60
2023-03-04T11:02:48.622Z,7.80
2023-03-04T11:07:56.296Z,7.90
2023-03-04T11:12:59.218Z,8.10
2023-03-04T11:18:05.348Z,8.10
2023-03-04T11:23:15.080Z,8.20
2023-03-04T11:28:24.305Z,8.40
2023-03-04T11:33:42.224Z,8.30
2023-03-04T11:38:53.956Z,8.30
2023-03-04T11:43:56.184Z,8.00
2023-03-04T11:49:14.259Z,8.00
2023-03-04T11:55:11.766Z,7.80
2023-03-04T12:00:22.372Z,7.90
2023-03-04T12:06:05.351Z,7.80
2023-03-04T12:11:32.156Z,7.80
2023-03-04T12:17:04.960Z,7.80
2023-03-04T12:22:19.049Z,7.70
2023-03-04T12:27:27.808Z,7.40
2023-03-04T12:32:35.079Z,7.30
2023-03-04T12:37:45.856Z,7.40
2023-03-04T12:43:30.568Z,7.40
2023-03-04T12:48:39.518Z,7.40
2023-03-04T12:54:26.221Z,7.70
2023-03-04T12:59:31.063Z,7.80
2023-03-04T13:05:13.247Z,8.20
2023-03-04T13:10:18.142Z,8.30
2023-03-04T13:15:23.050Z,8.30
2023-03-04T13:20:31.051Z,8.20
2023-03-04T13:25:41.122Z,8.20
2023-03-04T13:31:06.827Z,8.00
2023-03-04T13:36:47.785Z,7.90
2023-03-04T13:41:54.546Z,7.90
2023-03-04T13:46:56.796Z,7.90
2023-03-04T13:51:59.404Z,8.10
2023-03-04T13:57:01.356Z,8.70
2023-03-04T14:02:17.083Z,8.90
2023-03-04T14:07:35.168Z,8.50
2023-03-04T14:12:50.017Z,8.00
2023-03-04T14:17:55.515Z,7.80
2023-03-04T14:22:59.784Z,7.60
2023-03-04T14:28:17.061Z,7.70
2023-03-04T14:33:23.406Z,7.60
2023-03-04T14:38:32.027Z,7.80
2023-03-04T14:43:44.830Z,7.90
2023-03-04T14:48:52.437Z,7.80
2023-03-04T14:53:57.744Z,7.80
2023-03-04T14:59:00.405Z,7.70
2023-03-04T15:04:08.428Z,7.80
2023-03-04T15:09:22.683Z,8.00
2023-03-04T15:14:43.014Z,7.90
2023-03-04T15:19:45.008Z,7.80
2023-03-04T15:24:49.623Z,7.80
2023-03-04T15:29:56.053Z,7.60
2023-03-04T15:34:59.459Z,7.60
2023-03-04T15:40:02.972Z,7.60
2023-03-04T15:45:23.436Z,7.50
2023-03-04T15:50:28.968Z,7.30
2023-03-04T15:55:32.248Z,7.20
2023-03-04T16:00:34.655Z,7.20
2023-03-04T16:05:37.988Z,7.30
2023-03-04T16:10:40.464Z,7.20
2023-03-04T16:15:43.413Z,7.10
2023-03-04T16:20:48.092Z,7.20
2023-03-04T16:25:55.369Z,7.10
2023-03-04T16:30:57.442Z,7.10
2023-03-04T16:35:59.644Z,7.00
2023-03-04T16:41:02.139Z,7.00
2023-03-04T16:46:04.303Z,7.00
2023-03-04T16:51:18.632Z,7.00
2023-03-04T16:56:20.893Z,6.90
2023-03-04T17:01:29.300Z,6.90
2023-03-04T17:06:31.466Z,6.80
2023-03-04T17:11:34.854Z,6.80
2023-03-04T17:16:36.894Z,6.70
2023-03-04T17:21:39.046Z,6.70
2023-03-04T17:26:42.686Z,6.60
2023-03-04T17:31:44.829Z,6.60
2023-03-04T17:36:47.036Z,6.50
2023-03-04T17:41:53.051Z,6.50
2023-03-04T17:46:55.238Z,6.50
2023-03-04T17:51:57.343Z,6.50
2023-03-04T17:56:59.435Z,6.40
2023-03-04T18:02:01.499Z,6.40
2023-03-04T18:07:03.534Z,6.40
2023-03-04T18:12:06.330Z,6.40
2023-03-04T18:17:08.475Z,6.40
2023-03-04T18:22:10.549Z,6.40
2023-03-04T18:27:12.602Z,6.30
2023-03-04T18:32:14.750Z,6.20
2023-03-04T18:37:16.966Z,6.20
2023-03-04T18:42:19.036Z,6.00
2023-03-04T18:47:22.408Z,6.20
2023-03-04T18:52:24.470Z,6.20
2023-03-04T18:57:26.616Z,6.20
2023-03-04T19:02:32.691Z,6.20
2023-03-04T19:07:34.757Z,6.20
2023-03-04T19:12:36.820Z,6.20
2023-03-04T19:17:39.852Z,6.20
2023-03-04T19:22:42.456Z,6.20
2023-03-04T19:27:44.537Z,6.20
2023-03-04T19:32:47.521Z,6.20
2023-03-04T19:37:49.553Z,6.10
2023-03-04T19:42:51.553Z,6.10
2023-03-04T19:47:53.603Z,6.10
2023-03-04T19:52:55.685Z,6.20
2023-03-04T19:57:57.707Z,6.20
2023-03-04T20:03:00.107Z,6.20
2023-03-04T20:08:02.823Z,6.10
2023-03-04T20:13:06.686Z,6.10
2023-03-04T20:18:08.785Z,6.10
2023-03-04T20:23:10.922Z,6.10
2023-03-04T20:28:12.938Z,6.10
2023-03-04T20:33:17.646Z,6.10
2023-03-04T20:38:19.674Z,6.10
2023-03-04T20:43:23.692Z,6.10
2023-03-04T20:48:25.717Z,6.10
2023-03-04T20:53:27.773Z,6.10
2023-03-04T20:58:29.781Z,6.10
2023-03-04T21:03:32.212Z,6.10
2023-03-04T21:08:34.745Z,6.10
2023-03-04T21:13:37.136Z,6.10
2023-03-04T21:18:39.258Z,6.10
2023-03-04T21:23:41.371Z,6.10
2023-03-04T21:28:43.836Z,6.00
2023-03-04T21:33:47.124Z,6.10
2023-03-04T21:38:49.532Z,6.00
2023-03-04T21:43:52.212Z,6.00
2023-03-04T21:48:54.253Z,6.00
2023-03-04T21:53:56.284Z,6.00
2023-03-04T21:59:00.164Z,6.00
2023-03-04T22:04:03.028Z,5.90
2023-03-04T22:09:05.643Z,5.90
2023-03-04T22:14:07.744Z,5.90
2023-03-04T22:19:09.805Z,6.00
2023-03-04T22:24:11.860Z,6.00
2023-03-04T22:29:14.097Z,6.00
2023-03-04T22:34:16.813Z,6.00
2023-03-04T22:39:23.189Z,6.00
2023-03-04T22:44:25.748Z,5.90
2023-03-04T22:49:27.853Z,5.90
2023-03-04T22:54:29.923Z,5.90
2023-03-04T22:59:32.122Z,5.90
2023-03-04T23:04:34.144Z,5.90
2023-03-04T23:09:36.312Z,5.90
2023-03-04T23:14:39.891Z,5.90
2023-03-04T23:19:41.914Z,5.90
2023-03-04T23:24:43.974Z,5.80
2023-03-04T23:29:46.058Z,5.80
2023-03-04T23:34:53.125Z,5.80
2023-03-04T23:39:55.162Z,5.80
2023-03-04T23:44:57.190Z,5.80
2023-03-04T23:50:00.315Z,5.80
2023-03-04T23:55:02.357Z,5.90
